createdAt,value
2022-10-06T00:01:10.564Z,12.10
2022-10-06T00:03:39.030Z,12.10
2022-10-06T00:06:07.958Z,12.00
2022-10-06T00:08:38.128Z,12.00
2022-10-06T00:11:06.151Z,12.00
2022-10-06T00:13:33.522Z,11.90
2022-10-06T00:16:01.397Z,11.90
2022-10-06T00:18:29.971Z,11.90
2022-10-06T00:21:00.778Z,11.80
2022-10-06T00:23:29.471Z,11.80
2022-10-06T00:25:58.456Z,11.80
2022-10-06T00:28:26.433Z,11.80
2022-10-06T00:30:56.420Z,11.80
2022-10-06T00:33:24.174Z,11.70
2022-10-06T00:36:01.004Z,11.70
2022-10-06T00:38:29.352Z,11.70
2022-10-06T00:40:56.968Z,11.60
2022-10-06T00:43:52.575Z,11.60
2022-10-06T00:46:42.528Z,11.60
2022-10-06T00:49:34.730Z,11.60
2022-10-06T00:52:04.869Z,11.50
2022-10-06T00:54:33.691Z,11.50
2022-10-06T00:57:01.505Z,11.50
2022-10-06T00:59:28.662Z,11.40
2022-10-06T01:02:04.960Z,11.40
2022-10-06T01:04:37.030Z,11.40
2022-10-06T01:07:04.875Z,11.40
2022-10-06T01:09:32.468Z,11.30
2022-10-06T01:12:04.334Z,11.30
2022-10-06T01:14:31.696Z,11.30
2022-10-06T01:17:05.741Z,11.30
2022-10-06T01:20:06.112Z,11.30
2022-10-06T01:22:43.895Z,11.20
2022-10-06T01:25:17.012Z,11.20
2022-10-06T01:27:53.572Z,11.10
2022-10-06T01:30:33.016Z,11.10
2022-10-06T01:33:00.182Z,11.10
2022-10-06T01:35:27.693Z,11.00
2022-10-06T01:37:55.019Z,11.00
2022-10-06T01:40:22.213Z,11.00
2022-10-06T01:42:49.226Z,11.00
2022-10-06T01:45:16.486Z,10.90
2022-10-06T01:47:43.522Z,10.90
2022-10-06T01:50:10.694Z,10.90
2022-10-06T01:52:37.945Z,10.90
2022-10-06T01:55:06.018Z,10.90
2022-10-06T01:57:39.154Z,10.80
2022-10-06T02:00:07.728Z,10.80
2022-10-06T02:02:34.988Z,10.80
2022-10-06T02:05:01.992Z,10.80
2022-10-06T02:07:29.358Z,10.80
2022-10-06T02:09:56.523Z,10.70
2022-10-06T02:12:24.134Z,10.70
2022-10-06T02:14:51.290Z,10.70
2022-10-06T02:17:18.525Z,10.70
2022-10-06T02:19:45.752Z,10.70
2022-10-06T02:22:12.774Z,10.70
2022-10-06T02:24:39.988Z,10.60
2022-10-06T02:27:08.141Z,10.60
2022-10-06T02:29:35.333Z,10.60
2022-10-06T02:32:02.370Z,10.60
2022-10-06T02:34:29.620Z,10.60
2022-10-06T02:36:57.394Z,10.60
2022-10-06T02:39:24.772Z,10.50
2022-10-06T02:41:51.949Z,10.50
2022-10-06T02:44:19.295Z,10.50
2022-10-06T02:46:46.412Z,10.50
2022-10-06T02:49:13.804Z,10.50
2022-10-06T02:51:40.920Z,10.50
2022-10-06T02:54:08.354Z,10.50
2022-10-06T02:56:35.405Z,10.50
2022-10-06T02:59:02.679Z,10.40
2022-10-06T03:01:30.520Z,10.40
2022-10-06T03:03:57.749Z,10.40
2022-10-06T03:06:30.468Z,10.40
2022-10-06T03:09:07.492Z,10.40
2022-10-06T03:11:38.563Z,10.40
2022-10-06T03:14:06.901Z,10.30
2022-10-06T03:16:38.856Z,10.30
2022-10-06T03:19:08.749Z,10.30
2022-10-06T03:21:40.245Z,10.30
2022-10-06T03:24:07.942Z,10.20
2022-10-06T03:26:38.847Z,10.20
2022-10-06T03:29:11.264Z,10.20
2022-10-06T03:31:40.270Z,10.20
2022-10-06T03:34:07.547Z,10.20
2022-10-06T03:36:35.571Z,10.20
2022-10-06T03:39:05.195Z,10.20
2022-10-06T03:41:36.012Z,10.20
2022-10-06T03:44:05.215Z,10.10
2022-10-06T03:46:35.316Z,10.10
2022-10-06T03:49:02.664Z,10.10
2022-10-06T03:51:39.192Z,10.10
2022-10-06T03:54:10.664Z,10.10
2022-10-06T03:56:40.867Z,10.10
2022-10-06T03:59:11.300Z,10.10
2022-10-06T04:01:45.066Z,10.10
2022-10-06T04:04:13.525Z,10.10
2022-10-06T04:06:44.037Z,10.10
2022-10-06T04:09:15.562Z,10.10
2022-10-06T04:11:44.287Z,10.10
2022-10-06T04:14:15.381Z,10.10
2022-10-06T04:16:46.358Z,10.10
2022-10-06T04:19:15.791Z,10.10
2022-10-06T04:21:45.625Z,10.00
2022-10-06T04:24:13.620Z,10.00
2022-10-06T04:26:46.939Z,10.00
2022-10-06T04:29:14.942Z,10.00
2022-10-06T04:31:42.810Z,10.00
2022-10-06T04:34:15.381Z,10.00
2022-10-06T04:36:43.321Z,10.00
2022-10-06T04:39:12.432Z,9.90
2022-10-06T04:41:41.874Z,9.90
2022-10-06T04:44:10.521Z,9.90
2022-10-06T04:46:45.575Z,9.90
2022-10-06T04:49:19.646Z,9.90
2022-10-06T04:51:49.868Z,9.90
2022-10-06T04:54:18.713Z,9.90
2022-10-06T04:56:46.556Z,9.90
2022-10-06T04:59:13.780Z,9.90
2022-10-06T05:01:40.895Z,9.90
2022-10-06T05:04:08.035Z,9.90
2022-10-06T05:06:38.655Z,9.90
2022-10-06T05:09:12.643Z,9.90
2022-10-06T05:11:39.879Z,9.90
2022-10-06T05:14:07.349Z,9.80
2022-10-06T05:16:37.586Z,9.80
2022-10-06T05:19:05.050Z,9.80
2022-10-06T05:21:33.542Z,9.80
2022-10-06T05:24:01.106Z,9.80
2022-10-06T05:26:32.101Z,9.80
2022-10-06T05:28:59.403Z,9.80
2022-10-06T05:31:29.790Z,9.80
2022-10-06T05:33:58.683Z,9.80
2022-10-06T05:36:29.903Z,9.80
2022-10-06T05:38:58.451Z,9.90
2022-10-06T05:41:31.086Z,9.80
2022-10-06T05:43:59.043Z,9.90
2022-10-06T05:46:29.935Z,9.90
2022-10-06T05:49:03.442Z,9.90
2022-10-06T05:51:33.548Z,9.90
2022-10-06T05:54:01.340Z,9.90
2022-10-06T05:56:31.814Z,10.00
2022-10-06T05:59:00.590Z,10.00
2022-10-06T06:01:32.885Z,10.10
2022-10-06T06:04:06.734Z,10.10
2022-10-06T06:06:43.081Z,10.20
2022-10-06T06:09:14.403Z,10.20
2022-10-06T06:11:50.845Z,10.30
2022-10-06T06:14:44.433Z,10.40
2022-10-06T06:17:11.633Z,10.50
2022-10-06T06:19:38.879Z,10.60
2022-10-06T06:22:05.852Z,10.70
2022-10-06T06:24:32.872Z,10.80
2022-10-06T06:27:00.090Z,10.80
2022-10-06T06:29:27.987Z,10.90
2022-10-06T06:31:55.107Z,11.10
2022-10-06T06:34:22.314Z,11.20
2022-10-06T06:36:53.747Z,11.30
2022-10-06T06:39:21.566Z,11.40
2022-10-06T06:41:49.095Z,11.50
2022-10-06T06:44:16.668Z,11.70
2022-10-06T06:46:47.619Z,11.80
2022-10-06T06:49:15.606Z,12.00
2022-10-06T06:51:50.186Z,12.10
2022-10-06T06:54:18.303Z,12.30
2022-10-06T06:56:45.969Z,12.40
2022-10-06T06:59:13.803Z,12.60
2022-10-06T07:01:47.294Z,12.80
2022-10-06T07:04:17.359Z,13.00
2022-10-06T07:06:58.627Z,13.20
2022-10-06T07:09:27.007Z,13.30
2022-10-06T07:11:55.125Z,13.50
2022-10-06T07:14:24.175Z,13.70
2022-10-06T07:17:09.931Z,13.90
2022-10-06T07:19:57.383Z,14.10
2022-10-06T07:22:47.137Z,14.20
2022-10-06T07:25:27.784Z,14.50
2022-10-06T07:27:55.239Z,14.70
2022-10-06T07:30:26.518Z,14.90
2022-10-06T07:32:54.503Z,15.00
2022-10-06T07:35:23.993Z,15.20
2022-10-06T07:37:53.280Z,15.40
2022-10-06T07:40:20.686Z,15.60
2022-10-06T07:42:53.661Z,15.80
2022-10-06T07:45:47.321Z,16.00
2022-10-06T07:48:21.035Z,16.20
2022-10-06T07:50:51.432Z,16.40
2022-10-06T07:53:19.377Z,16.60
2022-10-06T07:55:47.847Z,16.80
2022-10-06T07:58:18.581Z,17.00
2022-10-06T08:00:48.602Z,17.20
2022-10-06T08:03:18.282Z,17.40
2022-10-06T08:05:57.739Z,17.60
2022-10-06T08:08:25.112Z,17.80
2022-10-06T08:10:55.822Z,18.00
2022-10-06T08:13:23.305Z,18.20
2022-10-06T08:15:51.307Z,18.40
2022-10-06T08:18:41.021Z,18.60
2022-10-06T08:21:15.561Z,18.80
2022-10-06T08:23:44.925Z,19.00
2022-10-06T08:26:13.910Z,19.20
2022-10-06T08:28:46.502Z,19.30
2022-10-06T08:31:15.994Z,19.50
2022-10-06T08:33:45.613Z,19.60
2022-10-06T08:36:15.150Z,19.70
2022-10-06T08:38:42.990Z,19.90
2022-10-06T08:41:48.609Z,20.00
2022-10-06T08:44:19.633Z,20.10
2022-10-06T08:47:25.717Z,20.30
2022-10-06T08:49:55.627Z,20.40
2022-10-06T08:52:41.388Z,20.50
2022-10-06T08:55:16.709Z,20.70
2022-10-06T08:58:51.438Z,20.80
2022-10-06T09:01:29.553Z,21.00
2022-10-06T09:04:02.798Z,21.20
2022-10-06T09:06:42.902Z,21.30
2022-10-06T09:09:45.055Z,21.50
2022-10-06T09:12:31.552Z,21.70
2022-10-06T09:15:51.014Z,21.90
2022-10-06T09:18:49.542Z,22.10
2022-10-06T09:21:26.629Z,22.20
2022-10-06T09:23:56.997Z,22.40
2022-10-06T09:26:30.094Z,22.50
2022-10-06T09:28:58.331Z,22.70
2022-10-06T09:31:29.747Z,22.80
2022-10-06T09:34:04.970Z,22.90
2022-10-06T09:36:32.327Z,23.00
2022-10-06T09:39:00.951Z,23.10
2022-10-06T09:41:40.152Z,23.30
2022-10-06T09:44:24.862Z,23.40
2022-10-06T09:46:52.585Z,23.40
2022-10-06T09:49:23.156Z,23.60
2022-10-06T09:52:15.043Z,23.70
2022-10-06T09:54:45.686Z,23.80
2022-10-06T09:57:26.857Z,23.90
2022-10-06T09:59:58.272Z,24.00
2022-10-06T10:02:41.138Z,24.10
2022-10-06T10:05:21.512Z,24.20
2022-10-06T10:08:10.049Z,24.20
2022-10-06T10:10:38.196Z,24.30
2022-10-06T10:13:24.453Z,24.40
2022-10-06T10:15:58.488Z,24.50
2022-10-06T10:18:30.383Z,24.50
2022-10-06T10:21:06.216Z,24.60
2022-10-06T10:23:41.128Z,24.70
2022-10-06T10:26:54.996Z,24.80
2022-10-06T10:29:51.059Z,24.90
2022-10-06T10:32:19.616Z,25.10
2022-10-06T10:35:02.132Z,25.20
2022-10-06T10:37:48.414Z,25.40
2022-10-06T10:40:28.113Z,25.50
2022-10-06T10:43:35.579Z,25.70
2022-10-06T10:46:13.924Z,25.80
2022-10-06T10:49:19.730Z,25.90
2022-10-06T10:52:03.967Z,26.00
2022-10-06T10:54:36.913Z,26.10
2022-10-06T10:57:04.210Z,26.20
2022-10-06T10:59:45.399Z,26.30
2022-10-06T11:02:23.199Z,26.40
2022-10-06T11:05:17.625Z,26.50
2022-10-06T11:08:29.939Z,26.60
2022-10-06T11:11:03.142Z,26.80
2022-10-06T11:13:35.474Z,27.00
2022-10-06T11:16:20.345Z,27.10
2022-10-06T11:19:14.867Z,27.30
2022-10-06T11:22:15.271Z,27.40
2022-10-06T11:25:21.285Z,27.60
2022-10-06T11:27:56.570Z,27.70
2022-10-06T11:30:27.701Z,27.80
2022-10-06T11:33:29.762Z,27.80
2022-10-06T11:35:56.957Z,27.80
2022-10-06T11:38:53.241Z,27.80
2022-10-06T11:41:38.828Z,27.80
2022-10-06T11:44:37.198Z,27.70
2022-10-06T11:47:47.352Z,27.60
2022-10-06T11:50:41.886Z,27.60
2022-10-06T11:53:31.887Z,27.50
2022-10-06T11:56:17.209Z,27.50
2022-10-06T11:58:56.421Z,27.40
2022-10-06T12:01:36.408Z,27.30
2022-10-06T12:04:09.697Z,27.30
2022-10-06T12:06:43.080Z,27.20
2022-10-06T12:09:33.633Z,27.10
2022-10-06T12:12:17.895Z,27.10
2022-10-06T12:18:00.899Z,27.20
2022-10-06T12:20:52.640Z,27.30
2022-10-06T12:23:52.910Z,27.40
2022-10-06T12:27:20.722Z,27.60
2022-10-06T12:30:22.731Z,27.70
2022-10-06T12:32:57.199Z,27.80
2022-10-06T12:35:40.133Z,27.80
2022-10-06T12:38:41.595Z,27.80
2022-10-06T12:41:53.445Z,27.80
2022-10-06T12:44:38.000Z,27.80
2022-10-06T12:47:20.958Z,27.70
2022-10-06T12:49:56.832Z,27.70
2022-10-06T12:52:51.653Z,27.70
2022-10-06T12:55:51.129Z,27.60
2022-10-06T12:58:29.092Z,27.50
2022-10-06T13:01:09.606Z,27.40
2022-10-06T13:03:39.597Z,27.40
2022-10-06T13:06:09.516Z,27.40
2022-10-06T13:08:39.939Z,27.40
2022-10-06T13:11:29.862Z,27.50
2022-10-06T13:14:07.920Z,27.60
2022-10-06T13:16:42.383Z,27.60
2022-10-06T13:19:28.299Z,27.60
2022-10-06T13:21:55.709Z,27.60
2022-10-06T13:24:27.097Z,27.50
2022-10-06T13:26:54.878Z,27.50
2022-10-06T13:29:25.121Z,27.50
2022-10-06T13:31:55.160Z,27.60
2022-10-06T13:34:34.923Z,27.70
2022-10-06T13:37:02.388Z,27.80
2022-10-06T13:39:32.671Z,27.90
2022-10-06T13:42:10.262Z,28.00
2022-10-06T13:44:56.676Z,28.10
2022-10-06T13:47:26.204Z,28.10
2022-10-06T13:50:17.366Z,28.10
2022-10-06T13:52:48.876Z,28.10
2022-10-06T13:55:27.508Z,28.00
2022-10-06T13:58:00.035Z,28.00
2022-10-06T14:00:41.443Z,28.00
2022-10-06T14:03:11.214Z,27.90
2022-10-06T14:05:43.158Z,27.90
2022-10-06T14:08:10.096Z,27.80
2022-10-06T14:10:49.670Z,27.80
2022-10-06T14:13:32.459Z,27.80
2022-10-06T14:16:09.418Z,27.70
2022-10-06T14:18:49.584Z,27.70
2022-10-06T14:21:44.993Z,27.70
2022-10-06T14:24:21.283Z,27.60
2022-10-06T14:26:49.901Z,27.60
2022-10-06T14:29:18.849Z,27.60
2022-10-06T14:31:47.694Z,27.70
2022-10-06T14:34:18.710Z,27.80
2022-10-06T14:36:55.407Z,28.00
2022-10-06T14:39:22.759Z,28.20
2022-10-06T14:41:50.370Z,28.40
2022-10-06T14:44:17.539Z,28.70
2022-10-06T14:46:48.910Z,28.90
2022-10-06T14:49:17.009Z,29.20
2022-10-06T14:51:45.223Z,29.50
2022-10-06T14:54:13.376Z,29.80
2022-10-06T14:56:41.501Z,30.10
2022-10-06T14:59:17.087Z,30.50
2022-10-06T15:01:45.789Z,30.80
2022-10-06T15:04:19.620Z,31.10
2022-10-06T15:07:06.715Z,31.50
2022-10-06T15:09:34.016Z,31.80
2022-10-06T15:12:01.241Z,32.10
2022-10-06T15:14:29.682Z,32.40
2022-10-06T15:17:01.173Z,32.70
2022-10-06T15:19:28.573Z,33.00
2022-10-06T15:21:56.294Z,33.30
2022-10-06T15:24:23.304Z,33.50
2022-10-06T15:27:09.055Z,33.60
2022-10-06T15:29:36.296Z,33.80
2022-10-06T15:32:06.440Z,33.90
2022-10-06T15:34:36.865Z,34.00
2022-10-06T15:37:05.072Z,34.00
2022-10-06T15:39:37.856Z,34.10
2022-10-06T15:42:05.559Z,34.10
2022-10-06T15:44:36.456Z,34.20
2022-10-06T15:47:07.090Z,34.20
2022-10-06T15:49:38.465Z,34.10
2022-10-06T15:52:06.276Z,34.10
2022-10-06T15:54:41.030Z,34.00
2022-10-06T15:57:13.869Z,33.90
2022-10-06T15:59:44.141Z,33.70
2022-10-06T16:02:17.055Z,33.40
2022-10-06T16:04:46.345Z,33.10
2022-10-06T16:07:19.240Z,32.70
2022-10-06T16:09:49.348Z,32.20
2022-10-06T16:12:22.910Z,31.80
2022-10-06T16:14:50.128Z,31.30
2022-10-06T16:17:18.627Z,30.80
2022-10-06T16:19:47.144Z,30.30
2022-10-06T16:22:19.335Z,29.80
2022-10-06T16:24:46.972Z,29.40
2022-10-06T16:27:15.544Z,28.90
2022-10-06T16:29:42.819Z,28.50
2022-10-06T16:32:09.948Z,28.10
2022-10-06T16:34:37.164Z,27.80
2022-10-06T16:37:04.247Z,27.40
2022-10-06T16:39:31.544Z,27.10
2022-10-06T16:41:58.585Z,26.70
2022-10-06T16:44:25.752Z,26.40
2022-10-06T16:46:52.993Z,26.10
2022-10-06T16:49:20.982Z,25.80
2022-10-06T16:51:48.001Z,25.50
2022-10-06T16:54:17.447Z,25.30
2022-10-06T16:56:51.864Z,25.00
2022-10-06T16:59:22.001Z,24.80
2022-10-06T17:01:50.275Z,24.60
2022-10-06T17:04:20.869Z,24.30
2022-10-06T17:06:56.950Z,24.10
2022-10-06T17:09:27.300Z,23.90
2022-10-06T17:11:59.848Z,23.70
2022-10-06T17:14:30.370Z,23.50
2022-10-06T17:16:58.699Z,23.30
2022-10-06T17:19:29.567Z,23.10
2022-10-06T17:21:59.351Z,22.90
2022-10-06T17:24:29.107Z,22.70
2022-10-06T17:26:57.758Z,22.60
2022-10-06T17:29:25.535Z,22.40
2022-10-06T17:31:59.062Z,22.30
2022-10-06T17:34:31.713Z,22.10
2022-10-06T17:37:01.621Z,22.00
2022-10-06T17:39:29.033Z,21.80
2022-10-06T17:41:56.192Z,21.70
2022-10-06T17:44:29.303Z,21.60
2022-10-06T17:46:59.221Z,21.50
2022-10-06T17:49:27.035Z,21.30
2022-10-06T17:51:55.542Z,21.20
2022-10-06T17:54:26.803Z,21.10
2022-10-06T17:56:57.185Z,20.90
2022-10-06T17:59:30.943Z,20.80
2022-10-06T18:02:02.690Z,20.70
2022-10-06T18:04:30.559Z,20.60
2022-10-06T18:06:58.105Z,20.50
2022-10-06T18:09:25.793Z,20.40
2022-10-06T18:11:56.833Z,20.30
2022-10-06T18:14:27.706Z,20.20
2022-10-06T18:17:01.061Z,20.10
2022-10-06T18:19:35.911Z,20.10
2022-10-06T18:22:10.598Z,20.00
2022-10-06T18:24:39.965Z,19.90
2022-10-06T18:27:08.201Z,19.80
2022-10-06T18:29:37.835Z,19.80
2022-10-06T18:32:53.408Z,19.70
2022-10-06T18:37:39.977Z,19.60
2022-10-06T18:40:10.242Z,19.50
2022-10-06T18:42:39.267Z,19.40
2022-10-06T18:45:27.360Z,19.40
2022-10-06T18:48:13.269Z,19.30
2022-10-06T18:50:40.633Z,19.30
2022-10-06T18:53:07.834Z,19.20
2022-10-06T18:55:35.161Z,19.10
2022-10-06T18:58:03.499Z,19.10
2022-10-06T19:00:31.228Z,19.00
2022-10-06T19:02:58.259Z,19.00
2022-10-06T19:05:25.632Z,18.90
2022-10-06T19:07:54.016Z,18.80
2022-10-06T19:10:21.717Z,18.80
2022-10-06T19:12:49.484Z,18.70
2022-10-06T19:15:20.641Z,18.60
2022-10-06T19:17:49.118Z,18.60
2022-10-06T19:20:18.440Z,18.50
2022-10-06T19:22:47.609Z,18.50
2022-10-06T19:25:18.800Z,18.40
2022-10-06T19:27:46.243Z,18.30
2022-10-06T19:30:13.614Z,18.30
2022-10-06T19:32:40.841Z,18.20
2022-10-06T19:35:10.512Z,18.10
2022-10-06T19:37:39.474Z,18.10
2022-10-06T19:40:08.820Z,18.00
2022-10-06T19:42:48.177Z,18.00
2022-10-06T19:45:16.338Z,17.90
2022-10-06T19:47:45.255Z,17.90
2022-10-06T19:50:13.566Z,17.80
2022-10-06T19:52:43.670Z,17.80
2022-10-06T19:55:11.155Z,17.80
2022-10-06T19:57:38.203Z,17.70
2022-10-06T20:00:07.530Z,17.70
2022-10-06T20:02:38.548Z,17.60
2022-10-06T20:05:09.216Z,17.60
2022-10-06T20:07:36.273Z,17.50
2022-10-06T20:10:03.687Z,17.50
2022-10-06T20:12:33.574Z,17.40
2022-10-06T20:15:01.119Z,17.40
2022-10-06T20:17:29.073Z,17.30
2022-10-06T20:19:59.293Z,17.30
2022-10-06T20:22:26.804Z,17.20
2022-10-06T20:24:54.450Z,17.20
2022-10-06T20:27:21.734Z,17.10
2022-10-06T20:29:48.907Z,17.10
2022-10-06T20:32:15.987Z,17.00
2022-10-06T20:34:43.200Z,16.90
2022-10-06T20:37:10.248Z,16.90
2022-10-06T20:39:55.774Z,16.80
2022-10-06T20:42:24.053Z,16.80
2022-10-06T20:44:51.322Z,16.70
2022-10-06T20:47:18.436Z,16.70
2022-10-06T20:49:45.655Z,16.60
2022-10-06T20:52:15.555Z,16.50
2022-10-06T20:54:43.425Z,16.50
2022-10-06T20:57:10.514Z,16.40
2022-10-06T20:59:37.904Z,16.40
2022-10-06T21:02:06.528Z,16.40
2022-10-06T21:04:34.886Z,16.30
2022-10-06T21:07:05.756Z,16.20
2022-10-06T21:09:33.325Z,16.20
2022-10-06T21:12:00.373Z,16.10
2022-10-06T21:14:27.465Z,16.10
2022-10-06T21:16:54.702Z,16.00
2022-10-06T21:19:21.925Z,16.00
2022-10-06T21:21:50.477Z,15.90
2022-10-06T21:24:17.988Z,15.90
2022-10-06T21:26:45.072Z,15.90
2022-10-06T21:29:14.144Z,15.80
2022-10-06T21:31:42.469Z,15.80
2022-10-06T21:34:10.425Z,15.70
2022-10-06T21:36:38.407Z,15.70
2022-10-06T21:39:06.845Z,15.60
2022-10-06T21:41:40.420Z,15.60
2022-10-06T21:44:10.852Z,15.60
2022-10-06T21:46:44.591Z,15.50
2022-10-06T21:49:15.447Z,15.50
2022-10-06T21:51:45.827Z,15.40
2022-10-06T21:54:14.154Z,15.40
2022-10-06T21:56:41.543Z,15.30
2022-10-06T21:59:09.376Z,15.30
2022-10-06T22:01:49.914Z,15.20
2022-10-06T22:04:17.413Z,15.20
2022-10-06T22:06:49.928Z,15.20
2022-10-06T22:09:19.477Z,15.10
2022-10-06T22:11:46.560Z,15.10
2022-10-06T22:14:17.159Z,15.00
2022-10-06T22:16:44.754Z,15.00
2022-10-06T22:19:14.495Z,15.00
2022-10-06T22:21:44.857Z,14.90
2022-10-06T22:24:19.459Z,14.90
2022-10-06T22:26:47.698Z,14.90
2022-10-06T22:29:17.795Z,14.90
2022-10-06T22:31:47.445Z,14.80
2022-10-06T22:34:18.320Z,14.80
2022-10-06T22:36:45.549Z,14.80
2022-10-06T22:39:12.768Z,14.80
2022-10-06T22:41:39.894Z,14.70
2022-10-06T22:44:07.247Z,14.70
2022-10-06T22:46:37.804Z,14.60
2022-10-06T22:49:05.985Z,14.60
2022-10-06T22:51:33.807Z,14.60
2022-10-06T22:54:01.427Z,14.50
2022-10-06T22:56:31.834Z,14.50
2022-10-06T22:59:00.346Z,14.50
2022-10-06T23:01:29.578Z,14.40
2022-10-06T23:03:57.305Z,14.40
2022-10-06T23:06:24.926Z,14.40
2022-10-06T23:08:52.504Z,14.30
2022-10-06T23:11:21.618Z,14.30
2022-10-06T23:13:50.411Z,14.30
2022-10-06T23:16:20.158Z,14.20
2022-10-06T23:18:48.228Z,14.20
2022-10-06T23:21:24.456Z,14.20
2022-10-06T23:23:55.751Z,14.20
2022-10-06T23:26:24.027Z,14.20
2022-10-06T23:28:54.912Z,14.20
2022-10-06T23:31:22.156Z,14.20
2022-10-06T23:33:49.676Z,14.10
2022-10-06T23:36:17.814Z,14.10
2022-10-06T23:38:48.077Z,14.10
2022-10-06T23:41:15.662Z,14.10
2022-10-06T23:43:43.489Z,14.10
2022-10-06T23:46:10.996Z,14.00
2022-10-06T23:48:38.289Z,14.00
2022-10-06T23:51:09.267Z,13.90
2022-10-06T23:53:36.867Z,13.90
2022-10-06T23:56:05.560Z,13.90
2022-10-06T23:58:33.069Z,13.90
